sensor_id;sensor_type;location;lat;lon;timestamp;P1;durP1;ratioP1;P2;durP2;ratioP2
61673;SDS011;47573;43.832;5.974;2022-07-06T00:04:10;110.10;;;56.88;;
61673;SDS011;47573;43.832;5.974;2022-07-06T00:09:10;100.65;;;56.30;;
61673;SDS011;47573;43.832;5.974;2022-07-06T00:14:11;107.55;;;60.47;;
61673;SDS011;47573;43.832;5.974;2022-07-06T00:19:13;99.38;;;54.17;;
61673;SDS011;47573;43.832;5.974;2022-07-06T00:24:13;91.35;;;51.13;;
61673;SDS011;47573;43.832;5.974;2022-07-06T00:29:14;89.90;;;51.53;;
61673;SDS011;47573;43.832;5.974;2022-07-06T00:34:16;85.65;;;46.67;;
61673;SDS011;47573;43.832;5.974;2022-07-06T00:39:16;73.22;;;41.80;;
61673;SDS011;47573;43.832;5.974;2022-07-06T00:44:17;76.60;;;41.88;;
61673;SDS011;47573;43.832;5.974;2022-07-06T00:49:19;75.45;;;39.08;;
61673;SDS011;47573;43.832;5.974;2022-07-06T00:54:19;80.05;;;42.47;;
61673;SDS011;47573;43.832;5.974;2022-07-06T00:59:20;82.70;;;43.95;;
61673;SDS011;47573;43.832;5.974;2022-07-06T01:04:21;81.13;;;42.58;;
61673;SDS011;47573;43.832;5.974;2022-07-06T01:09:22;74.35;;;40.03;;
61673;SDS011;47573;43.832;5.974;2022-07-06T01:14:23;85.57;;;39.83;;
61673;SDS011;47573;43.832;5.974;2022-07-06T01:19:25;109.63;;;46.20;;
61673;SDS011;47573;43.832;5.974;2022-07-06T01:24:27;108.95;;;48.08;;
61673;SDS011;47573;43.832;5.974;2022-07-06T01:29:28;127.57;;;49.58;;
61673;SDS011;47573;43.832;5.974;2022-07-06T01:34:29;92.47;;;45.92;;
61673;SDS011;47573;43.832;5.974;2022-07-06T01:39:31;86.97;;;43.75;;
61673;SDS011;47573;43.832;5.974;2022-07-06T01:44:32;85.25;;;44.13;;
61673;SDS011;47573;43.832;5.974;2022-07-06T01:49:32;83.95;;;44.00;;
61673;SDS011;47573;43.832;5.974;2022-07-06T01:54:34;84.88;;;43.65;;
61673;SDS011;47573;43.832;5.974;2022-07-06T01:59:35;79.63;;;42.92;;
61673;SDS011;47573;43.832;5.974;2022-07-06T02:04:35;87.07;;;43.38;;
61673;SDS011;47573;43.832;5.974;2022-07-06T02:09:37;82.70;;;42.78;;
61673;SDS011;47573;43.832;5.974;2022-07-06T02:14:38;79.60;;;42.65;;
61673;SDS011;47573;43.832;5.974;2022-07-06T02:19:38;81.72;;;43.35;;
61673;SDS011;47573;43.832;5.974;2022-07-06T02:24:40;74.38;;;41.38;;
61673;SDS011;47573;43.832;5.974;2022-07-06T02:29:40;80.55;;;41.53;;
61673;SDS011;47573;43.832;5.974;2022-07-06T02:34:41;73.38;;;39.88;;
61673;SDS011;47573;43.832;5.974;2022-07-06T02:39:43;71.88;;;39.78;;
61673;SDS011;47573;43.832;5.974;2022-07-06T02:44:44;68.72;;;38.80;;
61673;SDS011;47573;43.832;5.974;2022-07-06T02:49:44;65.88;;;38.50;;
61673;SDS011;47573;43.832;5.974;2022-07-06T02:54:46;69.63;;;38.83;;
61673;SDS011;47573;43.832;5.974;2022-07-06T02:59:46;69.78;;;38.08;;
61673;SDS011;47573;43.832;5.974;2022-07-06T03:04:47;69.07;;;38.03;;
61673;SDS011;47573;43.832;5.974;2022-07-06T03:09:49;68.78;;;39.53;;
61673;SDS011;47573;43.832;5.974;2022-07-06T03:14:49;98.38;;;59.42;;
61673;SDS011;47573;43.832;5.974;2022-07-06T03:19:50;119.40;;;72.93;;
61673;SDS011;47573;43.832;5.974;2022-07-06T03:24:52;135.43;;;84.28;;
61673;SDS011;47573;43.832;5.974;2022-07-06T03:29:52;194.80;;;118.90;;
61673;SDS011;47573;43.832;5.974;2022-07-06T03:34:53;216.63;;;131.32;;
61673;SDS011;47573;43.832;5.974;2022-07-06T03:39:55;173.32;;;108.25;;
61673;SDS011;47573;43.832;5.974;2022-07-06T03:44:55;151.25;;;93.15;;
61673;SDS011;47573;43.832;5.974;2022-07-06T03:49:56;142.55;;;85.43;;
61673;SDS011;47573;43.832;5.974;2022-07-06T03:54:58;115.63;;;71.07;;
61673;SDS011;47573;43.832;5.974;2022-07-06T03:59:58;110.63;;;66.65;;
61673;SDS011;47573;43.832;5.974;2022-07-06T04:04:59;106.45;;;65.15;;
61673;SDS011;47573;43.832;5.974;2022-07-06T04:10:01;106.90;;;62.90;;
61673;SDS011;47573;43.832;5.974;2022-07-06T04:15:01;99.82;;;60.22;;
61673;SDS011;47573;43.832;5.974;2022-07-06T04:20:03;98.72;;;59.83;;
61673;SDS011;47573;43.832;5.974;2022-07-06T04:25:07;103.00;;;59.85;;
61673;SDS011;47573;43.832;5.974;2022-07-06T04:30:09;97.90;;;58.67;;
61673;SDS011;47573;43.832;5.974;2022-07-06T04:35:10;90.90;;;54.20;;
61673;SDS011;47573;43.832;5.974;2022-07-06T04:40:12;84.50;;;51.22;;
61673;SDS011;47573;43.832;5.974;2022-07-06T04:45:13;82.50;;;48.38;;
61673;SDS011;47573;43.832;5.974;2022-07-06T04:50:13;78.68;;;47.03;;
61673;SDS011;47573;43.832;5.974;2022-07-06T04:55:15;75.53;;;46.08;;
61673;SDS011;47573;43.832;5.974;2022-07-06T05:00:16;71.50;;;43.92;;
61673;SDS011;47573;43.832;5.974;2022-07-06T05:05:16;70.72;;;43.15;;
61673;SDS011;47573;43.832;5.974;2022-07-06T05:10:18;72.80;;;43.72;;
61673;SDS011;47573;43.832;5.974;2022-07-06T05:15:19;67.68;;;39.75;;
61673;SDS011;47573;43.832;5.974;2022-07-06T05:20:19;68.53;;;41.40;;
61673;SDS011;47573;43.832;5.974;2022-07-06T05:25:21;56.83;;;34.22;;
61673;SDS011;47573;43.832;5.974;2022-07-06T05:30:22;48.13;;;29.75;;
61673;SDS011;47573;43.832;5.974;2022-07-06T05:35:22;39.03;;;25.08;;
61673;SDS011;47573;43.832;5.974;2022-07-06T05:40:25;40.95;;;25.38;;
61673;SDS011;47573;43.832;5.974;2022-07-06T05:45:25;46.15;;;26.98;;
61673;SDS011;47573;43.832;5.974;2022-07-06T05:50:26;46.88;;;28.20;;
61673;SDS011;47573;43.832;5.974;2022-07-06T05:55:28;43.58;;;27.35;;
61673;SDS011;47573;43.832;5.974;2022-07-06T06:00:28;43.20;;;28.00;;
61673;SDS011;47573;43.832;5.974;2022-07-06T06:05:29;52.20;;;32.17;;
61673;SDS011;47573;43.832;5.974;2022-07-06T06:10:31;49.97;;;31.38;;
61673;SDS011;47573;43.832;5.974;2022-07-06T06:15:32;50.33;;;30.80;;
61673;SDS011;47573;43.832;5.974;2022-07-06T06:20:32;51.15;;;31.65;;
61673;SDS011;47573;43.832;5.974;2022-07-06T06:25:35;46.75;;;29.45;;
61673;SDS011;47573;43.832;5.974;2022-07-06T06:30:37;25.17;;;15.23;;
61673;SDS011;47573;43.832;5.974;2022-07-06T06:35:41;23.52;;;11.73;;
61673;SDS011;47573;43.832;5.974;2022-07-06T06:40:44;16.92;;;8.23;;
61673;SDS011;47573;43.832;5.974;2022-07-06T06:45:45;90.20;;;29.02;;
61673;SDS011;47573;43.832;5.974;2022-07-06T06:50:45;31.35;;;9.82;;
61673;SDS011;47573;43.832;5.974;2022-07-06T06:55:47;9.75;;;5.47;;
61673;SDS011;47573;43.832;5.974;2022-07-06T07:00:48;31.88;;;9.82;;
61673;SDS011;47573;43.832;5.974;2022-07-06T07:05:48;10.55;;;5.07;;
61673;SDS011;47573;43.832;5.974;2022-07-06T07:10:50;13.55;;;6.10;;
61673;SDS011;47573;43.832;5.974;2022-07-06T07:15:51;13.52;;;6.95;;
61673;SDS011;47573;43.832;5.974;2022-07-06T07:20:51;12.70;;;8.15;;
61673;SDS011;47573;43.832;5.974;2022-07-06T07:25:54;830.08;;;359.10;;
61673;SDS011;47573;43.832;5.974;2022-07-06T07:30:54;14.93;;;8.90;;
61673;SDS011;47573;43.832;5.974;2022-07-06T07:35:55;319.85;;;122.53;;
61673;SDS011;47573;43.832;5.974;2022-07-06T07:40:57;14.23;;;9.50;;
61673;SDS011;47573;43.832;5.974;2022-07-06T07:45:57;16.02;;;9.80;;
61673;SDS011;47573;43.832;5.974;2022-07-06T07:50:58;12.13;;;7.53;;
61673;SDS011;47573;43.832;5.974;2022-07-06T07:56:00;13.68;;;9.85;;
61673;SDS011;47573;43.832;5.974;2022-07-06T08:01:00;18.85;;;10.43;;
61673;SDS011;47573;43.832;5.974;2022-07-06T08:06:01;15.10;;;9.50;;
61673;SDS011;47573;43.832;5.974;2022-07-06T08:11:03;11.80;;;8.48;;
61673;SDS011;47573;43.832;5.974;2022-07-06T08:16:03;15.32;;;10.38;;
61673;SDS011;47573;43.832;5.974;2022-07-06T08:21:04;14.48;;;9.75;;
61673;SDS011;47573;43.832;5.974;2022-07-06T08:26:06;14.52;;;9.93;;
61673;SDS011;47573;43.832;5.974;2022-07-06T08:31:07;14.25;;;9.25;;
61673;SDS011;47573;43.832;5.974;2022-07-06T08:36:08;14.93;;;9.95;;
61673;SDS011;47573;43.832;5.974;2022-07-06T08:41:10;14.80;;;9.30;;
61673;SDS011;47573;43.832;5.974;2022-07-06T08:46:13;14.13;;;9.45;;
61673;SDS011;47573;43.832;5.974;2022-07-06T08:51:14;15.50;;;9.30;;
61673;SDS011;47573;43.832;5.974;2022-07-06T08:56:16;13.68;;;9.25;;
61673;SDS011;47573;43.832;5.974;2022-07-06T09:01:18;13.60;;;9.35;;
61673;SDS011;47573;43.832;5.974;2022-07-06T09:06:19;14.60;;;9.27;;
61673;SDS011;47573;43.832;5.974;2022-07-06T09:11:25;14.13;;;9.02;;
61673;SDS011;47573;43.832;5.974;2022-07-06T09:16:26;13.95;;;8.88;;
61673;SDS011;47573;43.832;5.974;2022-07-06T09:21:29;14.10;;;9.10;;
61673;SDS011;47573;43.832;5.974;2022-07-06T09:26:32;11.82;;;8.60;;
61673;SDS011;47573;43.832;5.974;2022-07-06T09:31:33;13.55;;;8.80;;
61673;SDS011;47573;43.832;5.974;2022-07-06T09:36:37;12.75;;;8.30;;
61673;SDS011;47573;43.832;5.974;2022-07-06T09:41:40;16.40;;;7.90;;
61673;SDS011;47573;43.832;5.974;2022-07-06T09:46:40;9.70;;;7.15;;
61673;SDS011;47573;43.832;5.974;2022-07-06T09:51:41;10.00;;;6.90;;
61673;SDS011;47573;43.832;5.974;2022-07-06T09:56:43;9.90;;;6.82;;
61673;SDS011;47573;43.832;5.974;2022-07-06T10:01:45;8.70;;;6.20;;
61673;SDS011;47573;43.832;5.974;2022-07-06T10:06:46;8.75;;;6.20;;
61673;SDS011;47573;43.832;5.974;2022-07-06T10:11:50;8.48;;;6.05;;
61673;SDS011;47573;43.832;5.974;2022-07-06T10:16:51;9.00;;;5.90;;
61673;SDS011;47573;43.832;5.974;2022-07-06T10:21:52;11.63;;;6.32;;
61673;SDS011;47573;43.832;5.974;2022-07-06T10:26:54;15.02;;;8.18;;
61673;SDS011;47573;43.832;5.974;2022-07-06T10:31:55;7.60;;;5.80;;
61673;SDS011;47573;43.832;5.974;2022-07-06T10:36:56;8.52;;;5.85;;
61673;SDS011;47573;43.832;5.974;2022-07-06T10:41:58;8.32;;;5.63;;
61673;SDS011;47573;43.832;5.974;2022-07-06T10:46:59;7.43;;;5.57;;
61673;SDS011;47573;43.832;5.974;2022-07-06T10:51:59;18.40;;;5.30;;
61673;SDS011;47573;43.832;5.974;2022-07-06T10:57:01;7.80;;;5.30;;
61673;SDS011;47573;43.832;5.974;2022-07-06T11:02:12;11.75;;;5.43;;
61673;SDS011;47573;43.832;5.974;2022-07-06T11:07:14;6.40;;;5.07;;
61673;SDS011;47573;43.832;5.974;2022-07-06T11:12:17;9.88;;;5.03;;
61673;SDS011;47573;43.832;5.974;2022-07-06T11:17:18;10.07;;;5.20;;
61673;SDS011;47573;43.832;5.974;2022-07-06T11:22:19;7.18;;;4.85;;
61673;SDS011;47573;43.832;5.974;2022-07-06T11:27:21;12.07;;;6.60;;
61673;SDS011;47573;43.832;5.974;2022-07-06T11:32:23;15.98;;;6.63;;
61673;SDS011;47573;43.832;5.974;2022-07-06T11:37:24;7.55;;;5.03;;
61673;SDS011;47573;43.832;5.974;2022-07-06T11:42:26;8.13;;;4.70;;
61673;SDS011;47573;43.832;5.974;2022-07-06T11:47:30;93.32;;;24.77;;
61673;SDS011;47573;43.832;5.974;2022-07-06T11:52:31;8.98;;;4.57;;
61673;SDS011;47573;43.832;5.974;2022-07-06T11:57:37;11.15;;;5.15;;
61673;SDS011;47573;43.832;5.974;2022-07-06T12:02:39;7.25;;;4.78;;
61673;SDS011;47573;43.832;5.974;2022-07-06T12:07:39;5.95;;;4.43;;
61673;SDS011;47573;43.832;5.974;2022-07-06T12:12:41;5.28;;;4.22;;
61673;SDS011;47573;43.832;5.974;2022-07-06T12:17:46;6.22;;;4.50;;
61673;SDS011;47573;43.832;5.974;2022-07-06T12:22:47;9.35;;;3.90;;
61673;SDS011;47573;43.832;5.974;2022-07-06T12:27:49;7.72;;;4.78;;
61673;SDS011;47573;43.832;5.974;2022-07-06T12:38:11;5.18;;;4.10;;
61673;SDS011;47573;43.832;5.974;2022-07-06T12:43:13;6.18;;;4.28;;
61673;SDS011;47573;43.832;5.974;2022-07-06T12:48:13;5.63;;;4.20;;
61673;SDS011;47573;43.832;5.974;2022-07-06T12:53:23;4.82;;;3.78;;
61673;SDS011;47573;43.832;5.974;2022-07-06T12:58:26;43.55;;;11.30;;
61673;SDS011;47573;43.832;5.974;2022-07-06T13:03:26;10.43;;;4.28;;
61673;SDS011;47573;43.832;5.974;2022-07-06T13:08:27;5.93;;;3.95;;
61673;SDS011;47573;43.832;5.974;2022-07-06T13:13:29;46.38;;;12.10;;
61673;SDS011;47573;43.832;5.974;2022-07-06T13:18:29;30.27;;;8.02;;
61673;SDS011;47573;43.832;5.974;2022-07-06T13:23:30;14.88;;;5.60;;
61673;SDS011;47573;43.832;5.974;2022-07-06T13:28:32;63.03;;;16.50;;
61673;SDS011;47573;43.832;5.974;2022-07-06T13:33:32;4.20;;;3.70;;
61673;SDS011;47573;43.832;5.974;2022-07-06T13:38:33;6.28;;;3.97;;
61673;SDS011;47573;43.832;5.974;2022-07-06T13:43:34;4.72;;;3.92;;
61673;SDS011;47573;43.832;5.974;2022-07-06T13:48:35;4.90;;;3.63;;
61673;SDS011;47573;43.832;5.974;2022-07-06T13:53:36;7.65;;;4.20;;
61673;SDS011;47573;43.832;5.974;2022-07-06T13:58:38;5.40;;;4.00;;
61673;SDS011;47573;43.832;5.974;2022-07-06T14:03:38;17.83;;;6.13;;
61673;SDS011;47573;43.832;5.974;2022-07-06T14:08:39;153.57;;;41.97;;
61673;SDS011;47573;43.832;5.974;2022-07-06T14:13:41;4.70;;;3.90;;
61673;SDS011;47573;43.832;5.974;2022-07-06T14:18:41;10.18;;;4.72;;
61673;SDS011;47573;43.832;5.974;2022-07-06T14:23:42;4.80;;;3.60;;
61673;SDS011;47573;43.832;5.974;2022-07-06T14:28:44;4.30;;;3.70;;
61673;SDS011;47573;43.832;5.974;2022-07-06T14:33:44;13.57;;;7.78;;
61673;SDS011;47573;43.832;5.974;2022-07-06T14:38:45;65.50;;;35.50;;
61673;SDS011;47573;43.832;5.974;2022-07-06T14:43:47;100.10;;;64.15;;
61673;SDS011;47573;43.832;5.974;2022-07-06T14:48:47;71.70;;;46.95;;
61673;SDS011;47573;43.832;5.974;2022-07-06T14:53:48;58.88;;;39.60;;
61673;SDS011;47573;43.832;5.974;2022-07-06T14:58:50;59.95;;;40.33;;
61673;SDS011;47573;43.832;5.974;2022-07-06T15:03:50;55.47;;;38.13;;
61673;SDS011;47573;43.832;5.974;2022-07-06T15:08:50;61.20;;;38.05;;
61673;SDS011;47573;43.832;5.974;2022-07-06T15:13:52;60.70;;;37.33;;
61673;SDS011;47573;43.832;5.974;2022-07-06T15:18:53;61.08;;;37.38;;
61673;SDS011;47573;43.832;5.974;2022-07-06T15:23:53;53.55;;;34.53;;
61673;SDS011;47573;43.832;5.974;2022-07-06T15:28:55;55.42;;;33.88;;
61673;SDS011;47573;43.832;5.974;2022-07-06T15:33:56;55.80;;;34.25;;
61673;SDS011;47573;43.832;5.974;2022-07-06T15:38:56;55.15;;;33.33;;
61673;SDS011;47573;43.832;5.974;2022-07-06T15:43:58;51.15;;;31.63;;
61673;SDS011;47573;43.832;5.974;2022-07-06T15:48:59;50.00;;;31.20;;
61673;SDS011;47573;43.832;5.974;2022-07-06T15:53:59;48.47;;;29.60;;
61673;SDS011;47573;43.832;5.974;2022-07-06T15:59:01;44.30;;;29.48;;
61673;SDS011;47573;43.832;5.974;2022-07-06T16:04:02;58.35;;;35.08;;
61673;SDS011;47573;43.832;5.974;2022-07-06T16:09:02;62.08;;;37.92;;
61673;SDS011;47573;43.832;5.974;2022-07-06T16:14:04;74.47;;;46.58;;
61673;SDS011;47573;43.832;5.974;2022-07-06T16:19:05;84.50;;;51.80;;
61673;SDS011;47573;43.832;5.974;2022-07-06T16:24:07;93.03;;;56.88;;
61673;SDS011;47573;43.832;5.974;2022-07-06T16:29:09;99.55;;;61.83;;
61673;SDS011;47573;43.832;5.974;2022-07-06T16:34:10;135.20;;;85.40;;
61673;SDS011;47573;43.832;5.974;2022-07-06T16:39:10;207.73;;;128.55;;
61673;SDS011;47573;43.832;5.974;2022-07-06T16:44:12;269.65;;;167.48;;
61673;SDS011;47573;43.832;5.974;2022-07-06T16:49:13;246.77;;;153.00;;
61673;SDS011;47573;43.832;5.974;2022-07-06T16:54:13;238.75;;;148.13;;
61673;SDS011;47573;43.832;5.974;2022-07-06T16:59:15;300.48;;;194.38;;
61673;SDS011;47573;43.832;5.974;2022-07-06T17:04:16;317.02;;;206.88;;
61673;SDS011;47573;43.832;5.974;2022-07-06T17:09:16;315.13;;;209.23;;
61673;SDS011;47573;43.832;5.974;2022-07-06T17:14:18;348.30;;;230.43;;
61673;SDS011;47573;43.832;5.974;2022-07-06T17:19:19;363.77;;;244.23;;
61673;SDS011;47573;43.832;5.974;2022-07-06T17:24:19;363.10;;;244.95;;
61673;SDS011;47573;43.832;5.974;2022-07-06T17:29:21;357.05;;;243.68;;
61673;SDS011;47573;43.832;5.974;2022-07-06T17:34:22;353.85;;;237.10;;
61673;SDS011;47573;43.832;5.974;2022-07-06T17:39:22;465.25;;;321.83;;
61673;SDS011;47573;43.832;5.974;2022-07-06T17:44:24;242.52;;;155.45;;
61673;SDS011;47573;43.832;5.974;2022-07-06T17:49:25;80.53;;;50.72;;
61673;SDS011;47573;43.832;5.974;2022-07-06T17:54:25;63.35;;;39.60;;
61673;SDS011;47573;43.832;5.974;2022-07-06T17:59:27;13.32;;;6.75;;
61673;SDS011;47573;43.832;5.974;2022-07-06T18:04:28;149.73;;;106.75;;
61673;SDS011;47573;43.832;5.974;2022-07-06T18:09:28;14.27;;;7.47;;
61673;SDS011;47573;43.832;5.974;2022-07-06T18:14:30;16.02;;;9.00;;
61673;SDS011;47573;43.832;5.974;2022-07-06T18:19:31;9.57;;;4.13;;
61673;SDS011;47573;43.832;5.974;2022-07-06T18:24:31;12.32;;;3.80;;
61673;SDS011;47573;43.832;5.974;2022-07-06T18:29:34;5.35;;;3.80;;
61673;SDS011;47573;43.832;5.974;2022-07-06T18:34:34;11.60;;;5.72;;
61673;SDS011;47573;43.832;5.974;2022-07-06T18:39:35;29.17;;;17.90;;
61673;SDS011;47573;43.832;5.974;2022-07-06T18:44:37;20.38;;;10.05;;
61673;SDS011;47573;43.832;5.974;2022-07-06T18:49:37;26.05;;;10.48;;
61673;SDS011;47573;43.832;5.974;2022-07-06T18:54:38;68.95;;;45.58;;
61673;SDS011;47573;43.832;5.974;2022-07-06T18:59:40;26.48;;;10.18;;
61673;SDS011;47573;43.832;5.974;2022-07-06T19:04:40;11.82;;;7.15;;
61673;SDS011;47573;43.832;5.974;2022-07-06T19:09:41;8.30;;;4.15;;
61673;SDS011;47573;43.832;5.974;2022-07-06T19:14:43;13.82;;;4.20;;
61673;SDS011;47573;43.832;5.974;2022-07-06T19:19:43;12.25;;;4.93;;
61673;SDS011;47573;43.832;5.974;2022-07-06T19:24:43;11.35;;;5.00;;
61673;SDS011;47573;43.832;5.974;2022-07-06T19:29:45;51.50;;;31.15;;
61673;SDS011;47573;43.832;5.974;2022-07-06T19:34:46;22.20;;;11.32;;
61673;SDS011;47573;43.832;5.974;2022-07-06T19:39:46;19.25;;;11.50;;
61673;SDS011;47573;43.832;5.974;2022-07-06T19:44:48;10.02;;;4.30;;
61673;SDS011;47573;43.832;5.974;2022-07-06T19:49:49;28.67;;;20.65;;
61673;SDS011;47573;43.832;5.974;2022-07-06T19:54:49;49.30;;;31.17;;
61673;SDS011;47573;43.832;5.974;2022-07-06T19:59:51;14.90;;;6.00;;
61673;SDS011;47573;43.832;5.974;2022-07-06T20:04:52;15.00;;;7.63;;
61673;SDS011;47573;43.832;5.974;2022-07-06T20:09:52;28.75;;;14.75;;
61673;SDS011;47573;43.832;5.974;2022-07-06T20:14:54;22.13;;;13.02;;
61673;SDS011;47573;43.832;5.974;2022-07-06T20:19:55;52.45;;;29.92;;
61673;SDS011;47573;43.832;5.974;2022-07-06T20:24:55;38.13;;;24.98;;
61673;SDS011;47573;43.832;5.974;2022-07-06T20:29:57;8.77;;;6.05;;
61673;SDS011;47573;43.832;5.974;2022-07-06T20:34:57;48.38;;;25.02;;
61673;SDS011;47573;43.832;5.974;2022-07-06T20:39:58;24.67;;;11.23;;
61673;SDS011;47573;43.832;5.974;2022-07-06T20:45:00;29.55;;;8.80;;
61673;SDS011;47573;43.832;5.974;2022-07-06T20:50:00;22.63;;;12.27;;
61673;SDS011;47573;43.832;5.974;2022-07-06T20:55:01;19.52;;;8.65;;
61673;SDS011;47573;43.832;5.974;2022-07-06T21:00:04;14.82;;;8.07;;
61673;SDS011;47573;43.832;5.974;2022-07-06T21:05:06;19.83;;;9.00;;
61673;SDS011;47573;43.832;5.974;2022-07-06T21:10:07;16.23;;;7.28;;
61673;SDS011;47573;43.832;5.974;2022-07-06T21:15:10;17.08;;;8.20;;
61673;SDS011;47573;43.832;5.974;2022-07-06T21:20:11;20.83;;;7.80;;
61673;SDS011;47573;43.832;5.974;2022-07-06T21:25:11;47.80;;;23.90;;
61673;SDS011;47573;43.832;5.974;2022-07-06T21:30:13;53.30;;;26.63;;
61673;SDS011;47573;43.832;5.974;2022-07-06T21:35:14;30.27;;;16.88;;
61673;SDS011;47573;43.832;5.974;2022-07-06T21:40:14;34.65;;;18.75;;
61673;SDS011;47573;43.832;5.974;2022-07-06T21:45:16;44.85;;;22.35;;
61673;SDS011;47573;43.832;5.974;2022-07-06T21:50:17;40.67;;;21.65;;
61673;SDS011;47573;43.832;5.974;2022-07-06T21:55:17;44.63;;;23.05;;
61673;SDS011;47573;43.832;5.974;2022-07-06T22:00:19;52.90;;;27.23;;
61673;SDS011;47573;43.832;5.974;2022-07-06T22:05:20;61.13;;;29.52;;
61673;SDS011;47573;43.832;5.974;2022-07-06T22:10:21;63.97;;;31.48;;
61673;SDS011;47573;43.832;5.974;2022-07-06T22:15:22;71.25;;;32.47;;
61673;SDS011;47573;43.832;5.974;2022-07-06T22:20:23;58.35;;;29.50;;
61673;SDS011;47573;43.832;5.974;2022-07-06T22:25:24;77.40;;;36.42;;
61673;SDS011;47573;43.832;5.974;2022-07-06T22:30:26;76.63;;;37.97;;
61673;SDS011;47573;43.832;5.974;2022-07-06T22:35:27;72.63;;;35.28;;
61673;SDS011;47573;43.832;5.974;2022-07-06T22:40:27;89.50;;;41.00;;
61673;SDS011;47573;43.832;5.974;2022-07-06T22:45:29;87.05;;;39.75;;
61673;SDS011;47573;43.832;5.974;2022-07-06T22:50:30;82.65;;;39.40;;
61673;SDS011;47573;43.832;5.974;2022-07-06T22:55:30;86.55;;;40.60;;
61673;SDS011;47573;43.832;5.974;2022-07-06T23:00:32;91.97;;;42.28;;
61673;SDS011;47573;43.832;5.974;2022-07-06T23:05:33;93.88;;;42.45;;
61673;SDS011;47573;43.832;5.974;2022-07-06T23:10:33;93.03;;;41.17;;
61673;SDS011;47573;43.832;5.974;2022-07-06T23:15:35;84.18;;;39.65;;
61673;SDS011;47573;43.832;5.974;2022-07-06T23:20:36;92.82;;;41.35;;
61673;SDS011;47573;43.832;5.974;2022-07-06T23:25:36;105.88;;;50.70;;
61673;SDS011;47573;43.832;5.974;2022-07-06T23:30:38;128.98;;;61.63;;
61673;SDS011;47573;43.832;5.974;2022-07-06T23:35:39;130.90;;;61.92;;
61673;SDS011;47573;43.832;5.974;2022-07-06T23:40:40;170.07;;;82.78;;
61673;SDS011;47573;43.832;5.974;2022-07-06T23:45:42;225.00;;;105.50;;
61673;SDS011;47573;43.832;5.974;2022-07-06T23:50:42;252.80;;;118.25;;
61673;SDS011;47573;43.832;5.974;2022-07-06T23:55:43;260.58;;;117.03;;
